createdAt,value
2019-05-09T00:00:23.233Z,17.00
2019-05-09T00:01:23.532Z,16.00
2019-05-09T00:02:21.221Z,16.10
2019-05-09T00:03:21.211Z,16.10
2019-05-09T00:04:23.130Z,17.30
2019-05-09T00:05:24.853Z,23.50
2019-05-09T00:06:21.178Z,16.10
2019-05-09T00:07:23.172Z,16.70
2019-05-09T00:08:23.066Z,20.20
2019-05-09T00:09:23.146Z,19.50
2019-05-09T00:11:30.054Z,15.70
2019-05-09T00:12:30.042Z,20.20
2019-05-09T00:13:30.051Z,16.20
2019-05-09T00:14:30.021Z,19.80
2019-05-09T00:15:30.023Z,21.00
2019-05-09T00:16:30.002Z,16.80
2019-05-09T00:17:29.991Z,16.90
2019-05-09T00:18:29.981Z,17.90
2019-05-09T00:19:30.212Z,19.90
2019-05-09T00:20:29.970Z,17.20
2019-05-09T00:21:29.950Z,19.00
2019-05-09T00:22:29.939Z,20.80
2019-05-09T00:23:29.929Z,18.30
2019-05-09T00:24:29.917Z,18.50
2019-05-09T00:25:29.920Z,21.40
2019-05-09T00:26:29.902Z,20.00
2019-05-09T00:27:29.887Z,20.00
2019-05-09T00:28:32.933Z,19.20
2019-05-09T00:29:30.877Z,19.30
2019-05-09T00:30:29.860Z,23.40
2019-05-09T00:31:30.115Z,21.60
2019-05-09T00:32:29.848Z,16.40
2019-05-09T00:33:29.824Z,19.30
2019-05-09T00:34:29.805Z,18.10
2019-05-09T00:35:29.803Z,19.80
2019-05-09T00:36:29.783Z,16.80
2019-05-09T00:37:29.793Z,18.60
2019-05-09T00:38:29.763Z,19.10
2019-05-09T00:39:29.762Z,20.50
2019-05-09T00:40:29.772Z,19.70
2019-05-09T00:41:29.731Z,17.50
2019-05-09T00:42:29.721Z,20.90
2019-05-09T00:43:29.710Z,17.50
2019-05-09T00:44:29.700Z,19.70
2019-05-09T00:45:29.718Z,20.50
2019-05-09T00:46:29.680Z,22.90
2019-05-09T00:47:29.690Z,22.20
2019-05-09T00:48:29.671Z,20.70
2019-05-09T00:49:29.648Z,20.70
2019-05-09T00:50:29.722Z,18.20
2019-05-09T00:51:29.637Z,17.10
2019-05-09T00:52:29.616Z,19.00
2019-05-09T00:53:29.606Z,22.50
2019-05-09T00:54:29.595Z,19.90
2019-05-09T00:55:29.585Z,16.80
2019-05-09T00:56:29.585Z,20.50
2019-05-09T00:57:29.564Z,22.20
2019-05-09T00:58:29.554Z,15.00
2019-05-09T00:59:29.542Z,19.70
2019-05-09T01:00:29.539Z,22.00
2019-05-09T01:01:29.513Z,16.50
2019-05-09T01:02:29.512Z,17.40
2019-05-09T01:03:29.503Z,17.20
2019-05-09T01:04:30.052Z,16.00
2019-05-09T01:05:29.472Z,17.50
2019-05-09T01:06:29.461Z,17.20
2019-05-09T01:07:29.458Z,18.70
2019-05-09T01:08:29.445Z,19.60
2019-05-09T01:09:29.450Z,19.40
2019-05-09T01:10:29.426Z,17.70
2019-05-09T01:11:29.446Z,17.30
2019-05-09T01:12:29.419Z,17.70
2019-05-09T01:13:29.429Z,17.50
2019-05-09T01:14:29.377Z,19.40
2019-05-09T01:15:29.377Z,19.40
2019-05-09T01:16:29.355Z,20.00
2019-05-09T01:17:29.347Z,20.10
2019-05-09T01:18:29.335Z,17.50
2019-05-09T01:19:29.335Z,20.80
2019-05-09T01:20:29.374Z,22.80
2019-05-09T01:21:29.313Z,18.40
2019-05-09T01:22:29.293Z,19.80
2019-05-09T01:23:29.283Z,19.00
2019-05-09T01:24:29.271Z,17.60
2019-05-09T01:25:29.262Z,20.00
2019-05-09T01:26:29.252Z,19.20
2019-05-09T01:27:29.246Z,20.20
2019-05-09T01:28:29.225Z,17.70
2019-05-09T01:29:29.232Z,16.80
2019-05-09T01:30:29.211Z,16.50
2019-05-09T01:31:29.190Z,17.00
2019-05-09T01:32:29.179Z,18.10
2019-05-09T01:33:29.169Z,19.60
2019-05-09T01:34:29.210Z,18.30
2019-05-09T01:35:29.160Z,18.70
2019-05-09T01:36:29.150Z,17.60
2019-05-09T01:37:29.398Z,18.30
2019-05-09T01:38:29.117Z,16.50
2019-05-09T01:39:29.126Z,19.40
2019-05-09T01:40:29.105Z,16.10
2019-05-09T01:41:33.344Z,17.60
2019-05-09T01:42:29.083Z,13.70
2019-05-09T01:43:29.064Z,17.40
2019-05-09T01:44:29.059Z,17.20
2019-05-09T01:45:29.057Z,13.70
2019-05-09T01:46:29.055Z,19.10
2019-05-09T01:47:29.023Z,14.90
2019-05-09T01:48:29.023Z,14.80
2019-05-09T01:49:29.012Z,14.20
2019-05-09T01:50:28.994Z,14.00
2019-05-09T01:51:28.981Z,15.20
2019-05-09T01:52:28.970Z,15.70
2019-05-09T01:53:28.950Z,16.00
2019-05-09T01:54:28.960Z,15.20
2019-05-09T01:55:28.940Z,14.60
2019-05-09T01:56:28.919Z,16.80
2019-05-09T01:57:28.919Z,14.90
2019-05-09T01:58:28.921Z,13.20
2019-05-09T01:59:28.898Z,15.40
2019-05-09T02:00:28.897Z,17.40
2019-05-09T02:01:28.882Z,15.50
2019-05-09T02:02:28.864Z,18.80
2019-05-09T02:03:28.849Z,16.10
2019-05-09T02:04:28.839Z,14.70
2019-05-09T02:05:28.836Z,17.40
2019-05-09T02:06:28.824Z,15.30
2019-05-09T02:07:28.816Z,16.70
2019-05-09T02:08:28.803Z,16.90
2019-05-09T02:09:28.783Z,17.80
2019-05-09T02:10:28.847Z,14.90
2019-05-09T02:11:40.167Z,14.80
2019-05-09T02:12:29.752Z,16.30
2019-05-09T02:13:28.785Z,16.00
2019-05-09T02:14:28.760Z,15.20
2019-05-09T02:15:28.729Z,15.90
2019-05-09T02:16:28.710Z,15.60
2019-05-09T02:17:28.705Z,15.60
2019-05-09T02:18:28.700Z,15.90
2019-05-09T02:19:28.679Z,17.50
2019-05-09T02:20:28.678Z,15.20
2019-05-09T02:21:28.658Z,16.60
2019-05-09T02:22:28.651Z,17.30
2019-05-09T02:23:28.648Z,16.20
2019-05-09T02:24:28.637Z,16.40
2019-05-09T02:25:28.617Z,15.60
2019-05-09T02:26:28.627Z,15.80
2019-05-09T02:27:28.607Z,15.10
2019-05-09T02:28:28.586Z,16.30
2019-05-09T02:29:28.587Z,17.00
2019-05-09T02:30:28.558Z,14.80
2019-05-09T02:31:28.559Z,16.60
2019-05-09T02:32:28.543Z,17.20
2019-05-09T02:33:28.558Z,15.90
2019-05-09T02:34:28.522Z,16.90
2019-05-09T02:35:31.968Z,16.00
2019-05-09T02:36:29.659Z,18.00
2019-05-09T02:37:28.836Z,17.10
2019-05-09T02:38:28.787Z,15.90
2019-05-09T02:39:29.411Z,18.50
2019-05-09T02:40:28.624Z,16.50
2019-05-09T02:41:28.790Z,16.70
2019-05-09T02:42:28.460Z,17.00
2019-05-09T02:43:29.270Z,16.80
2019-05-09T02:44:29.068Z,15.60
2019-05-09T02:45:28.534Z,17.50
2019-05-09T02:46:29.331Z,18.00
2019-05-09T02:47:29.063Z,15.80
2019-05-09T02:48:28.958Z,16.40
2019-05-09T02:49:28.873Z,16.50
2019-05-09T02:50:28.711Z,18.30
2019-05-09T02:51:29.262Z,15.90
2019-05-09T02:52:28.807Z,16.50
2019-05-09T02:53:29.015Z,17.30
2019-05-09T02:54:29.720Z,16.80
2019-05-09T02:55:28.925Z,16.50
2019-05-09T02:56:29.497Z,18.70
2019-05-09T02:57:29.337Z,16.40
2019-05-09T02:58:28.354Z,17.20
2019-05-09T02:59:29.729Z,18.90
2019-05-09T03:00:29.009Z,18.10
2019-05-09T03:01:29.399Z,18.00
2019-05-09T03:02:28.922Z,17.10
2019-05-09T03:03:29.015Z,19.10
2019-05-09T03:04:28.597Z,19.60
2019-05-09T03:05:29.617Z,18.10
2019-05-09T03:06:28.554Z,19.00
2019-05-09T03:07:28.821Z,18.70
2019-05-09T03:08:29.547Z,19.00
2019-05-09T03:09:28.792Z,17.80
2019-05-09T03:10:29.262Z,24.20
2019-05-09T03:11:28.899Z,18.40
2019-05-09T03:12:35.266Z,16.90
2019-05-09T03:13:29.318Z,16.80
2019-05-09T03:14:28.847Z,19.80
2019-05-09T03:15:29.175Z,18.50
2019-05-09T03:16:29.382Z,18.40
2019-05-09T03:17:28.166Z,18.50
2019-05-09T03:18:28.716Z,20.20
2019-05-09T03:19:29.681Z,19.80
2019-05-09T03:20:28.876Z,19.30
2019-05-09T03:21:29.905Z,18.90
2019-05-09T03:22:28.859Z,18.50
2019-05-09T03:23:28.676Z,19.30
2019-05-09T03:24:28.812Z,19.60
2019-05-09T03:25:28.860Z,19.60
2019-05-09T03:26:29.247Z,17.50
2019-05-09T03:27:28.920Z,19.00
2019-05-09T03:28:28.419Z,18.30
2019-05-09T03:29:29.178Z,18.50
2019-05-09T03:30:29.083Z,18.10
2019-05-09T03:31:29.794Z,18.60
2019-05-09T03:32:29.725Z,20.70
2019-05-09T03:33:29.630Z,18.50
2019-05-09T03:34:30.033Z,19.60
2019-05-09T03:35:27.860Z,18.40
2019-05-09T03:36:28.208Z,20.00
2019-05-09T03:37:27.920Z,19.00
2019-05-09T03:38:28.432Z,23.60
2019-05-09T03:39:27.825Z,19.50
2019-05-09T03:40:27.806Z,20.30
2019-05-09T03:41:28.370Z,18.90
2019-05-09T03:42:39.677Z,21.00
2019-05-09T03:43:28.788Z,18.60
2019-05-09T03:44:28.373Z,18.80
2019-05-09T03:45:27.776Z,19.40
2019-05-09T03:46:28.106Z,18.90
2019-05-09T03:47:27.731Z,18.30
2019-05-09T03:48:28.341Z,20.40
2019-05-09T03:49:28.390Z,18.30
2019-05-09T03:50:28.045Z,17.70
2019-05-09T03:51:27.694Z,18.50
2019-05-09T03:52:28.003Z,17.30
2019-05-09T03:53:27.712Z,18.80
2019-05-09T03:54:28.311Z,18.90
2019-05-09T03:55:28.204Z,19.40
2019-05-09T03:56:27.649Z,18.20
2019-05-09T03:57:28.318Z,19.40
2019-05-09T03:58:28.138Z,20.00
2019-05-09T03:59:27.929Z,18.50
2019-05-09T04:00:28.334Z,21.30
2019-05-09T04:01:28.153Z,19.70
2019-05-09T04:02:28.166Z,15.40
2019-05-09T04:03:27.809Z,19.60
2019-05-09T04:04:28.125Z,15.70
2019-05-09T04:05:27.533Z,18.20
2019-05-09T04:06:28.196Z,17.60
2019-05-09T04:07:28.022Z,18.00
2019-05-09T04:08:28.249Z,16.80
2019-05-09T04:09:27.546Z,17.60
2019-05-09T04:10:28.234Z,16.00
2019-05-09T04:11:27.647Z,16.40
2019-05-09T04:12:28.415Z,18.00
2019-05-09T04:13:28.291Z,15.70
2019-05-09T04:14:28.174Z,15.80
2019-05-09T04:15:27.575Z,18.00
2019-05-09T04:16:27.843Z,15.00
2019-05-09T04:17:28.082Z,15.80
2019-05-09T04:18:27.783Z,15.60
2019-05-09T04:19:29.484Z,16.50
2019-05-09T04:20:27.767Z,17.50
2019-05-09T04:21:28.002Z,14.70
2019-05-09T04:22:27.356Z,14.80
2019-05-09T04:23:27.671Z,13.20
2019-05-09T04:24:27.968Z,15.70
2019-05-09T04:25:27.474Z,13.40
2019-05-09T04:26:27.711Z,16.20
2019-05-09T04:27:29.650Z,13.90
2019-05-09T04:28:27.859Z,14.40
2019-05-09T04:29:28.544Z,16.00
2019-05-09T04:30:27.517Z,12.40
2019-05-09T04:31:27.993Z,13.90
2019-05-09T04:32:27.417Z,13.20
2019-05-09T04:33:27.945Z,13.40
2019-05-09T04:34:27.661Z,14.50
2019-05-09T04:35:27.939Z,14.00
2019-05-09T04:36:27.385Z,14.90
2019-05-09T04:37:28.142Z,13.10
2019-05-09T04:38:27.915Z,13.10
2019-05-09T04:39:28.428Z,12.90
2019-05-09T04:40:31.704Z,15.60
2019-05-09T04:41:28.592Z,12.00
2019-05-09T04:42:28.333Z,10.80
2019-05-09T04:43:35.316Z,12.30
2019-05-09T04:44:28.503Z,12.50
2019-05-09T04:45:28.294Z,12.10
2019-05-09T04:46:27.709Z,10.10
2019-05-09T04:47:27.807Z,12.00
2019-05-09T04:48:28.154Z,11.70
2019-05-09T04:49:29.614Z,10.70
2019-05-09T04:50:27.901Z,11.00
2019-05-09T04:51:28.355Z,14.20
2019-05-09T04:52:27.941Z,10.60
2019-05-09T04:53:28.579Z,11.40
2019-05-09T04:54:27.980Z,10.80
2019-05-09T04:55:27.373Z,9.20
2019-05-09T04:56:27.875Z,10.90
2019-05-09T04:57:27.890Z,10.90
2019-05-09T04:58:27.451Z,11.70
2019-05-09T04:59:28.350Z,9.30
2019-05-09T05:00:27.379Z,11.40
2019-05-09T05:01:28.155Z,9.00
2019-05-09T05:02:27.630Z,12.30
2019-05-09T05:03:28.398Z,11.00
2019-05-09T05:04:28.282Z,10.90
2019-05-09T05:05:28.440Z,9.50
2019-05-09T05:06:28.056Z,8.90
2019-05-09T05:07:28.664Z,8.50
2019-05-09T05:08:28.515Z,11.60
2019-05-09T05:09:27.761Z,9.50
2019-05-09T05:10:27.323Z,10.40
2019-05-09T05:11:27.905Z,8.90
2019-05-09T05:12:27.765Z,9.30
2019-05-09T05:13:29.608Z,13.40
2019-05-09T05:14:28.079Z,8.00
2019-05-09T05:15:27.627Z,8.50
2019-05-09T05:16:27.384Z,10.20
2019-05-09T05:17:30.291Z,8.80
2019-05-09T05:18:28.477Z,9.30
2019-05-09T05:19:28.558Z,13.40
2019-05-09T05:20:27.765Z,9.40
2019-05-09T05:21:28.458Z,10.10
2019-05-09T05:22:28.364Z,7.50
2019-05-09T05:23:27.576Z,11.80
2019-05-09T05:24:27.783Z,11.60
2019-05-09T05:25:27.925Z,8.80
2019-05-09T05:26:27.702Z,8.20
2019-05-09T05:27:27.821Z,8.90
2019-05-09T05:28:27.814Z,8.10
2019-05-09T05:29:28.210Z,6.00
2019-05-09T05:30:28.364Z,9.40
2019-05-09T05:31:28.577Z,9.20
2019-05-09T05:32:28.186Z,8.50
2019-05-09T05:33:27.781Z,10.80
2019-05-09T05:34:27.436Z,7.50
2019-05-09T05:35:28.462Z,9.00
2019-05-09T05:36:27.938Z,7.20
2019-05-09T05:37:28.069Z,10.10
2019-05-09T05:38:27.536Z,6.40
2019-05-09T05:39:28.316Z,10.30
2019-05-09T05:40:31.947Z,8.50
2019-05-09T05:41:28.443Z,8.80
2019-05-09T05:42:28.202Z,11.70
2019-05-09T05:43:40.057Z,8.60
2019-05-09T05:44:28.366Z,6.80
2019-05-09T05:45:28.488Z,9.10
2019-05-09T05:46:28.482Z,7.70
2019-05-09T05:47:29.105Z,8.50
2019-05-09T05:48:27.938Z,7.10
2019-05-09T05:49:27.958Z,8.70
2019-05-09T05:50:28.094Z,10.50
2019-05-09T05:51:27.671Z,11.20
2019-05-09T05:52:27.741Z,7.30
2019-05-09T05:53:27.754Z,7.40
2019-05-09T05:54:27.701Z,6.60
2019-05-09T05:55:27.472Z,8.00
2019-05-09T05:56:28.011Z,10.50
2019-05-09T05:57:27.964Z,8.00
2019-05-09T05:58:28.201Z,8.10
2019-05-09T05:59:28.559Z,7.60
2019-05-09T06:00:28.469Z,6.60
2019-05-09T06:01:27.880Z,7.20
2019-05-09T06:02:28.128Z,8.50
2019-05-09T06:03:28.257Z,7.40
2019-05-09T06:04:27.576Z,9.70
2019-05-09T06:05:27.818Z,11.60
2019-05-09T06:06:27.954Z,10.60
2019-05-09T06:07:28.417Z,7.20
2019-05-09T06:08:27.597Z,6.70
2019-05-09T06:09:28.055Z,7.10
2019-05-09T06:10:28.781Z,7.00
2019-05-09T06:11:28.113Z,7.00
2019-05-09T06:12:27.612Z,7.60
2019-05-09T06:13:27.574Z,7.30
2019-05-09T06:14:28.423Z,8.50
2019-05-09T06:15:28.615Z,5.10
2019-05-09T06:16:27.981Z,7.00
2019-05-09T06:17:28.435Z,4.80
2019-05-09T06:18:27.594Z,8.20
2019-05-09T06:19:28.429Z,7.60
2019-05-09T06:20:28.112Z,9.30
2019-05-09T06:21:28.114Z,6.80
2019-05-09T06:22:27.571Z,5.80
2019-05-09T06:23:28.127Z,6.80
2019-05-09T06:24:28.053Z,8.20
2019-05-09T06:25:30.062Z,7.40
2019-05-09T06:26:28.879Z,8.80
2019-05-09T06:27:27.533Z,8.30
2019-05-09T06:28:27.425Z,6.20
2019-05-09T06:29:28.573Z,7.10
2019-05-09T06:30:27.988Z,8.90
2019-05-09T06:31:28.464Z,10.20
2019-05-09T06:32:27.916Z,7.10
2019-05-09T06:33:28.421Z,5.30
2019-05-09T06:34:27.763Z,7.10
2019-05-09T06:35:28.057Z,8.50
2019-05-09T06:36:28.311Z,5.60
2019-05-09T06:37:27.658Z,7.70
2019-05-09T06:38:28.075Z,7.50
2019-05-09T06:39:28.332Z,10.10
2019-05-09T06:40:28.493Z,8.20
2019-05-09T06:41:28.365Z,8.20
2019-05-09T06:42:28.436Z,9.30
2019-05-09T06:43:25.853Z,5.30
2019-05-09T06:44:28.118Z,6.70
2019-05-09T06:45:27.250Z,8.40
2019-05-09T06:46:27.745Z,7.80
2019-05-09T06:47:27.796Z,9.00
2019-05-09T06:48:25.799Z,7.20
2019-05-09T06:49:29.360Z,7.20
2019-05-09T06:50:27.290Z,7.60
2019-05-09T06:51:27.664Z,7.10
2019-05-09T06:52:28.048Z,6.00
2019-05-09T06:53:27.262Z,6.10
2019-05-09T06:54:27.760Z,7.60
2019-05-09T06:55:27.667Z,7.50
2019-05-09T06:56:28.093Z,6.90
2019-05-09T06:57:28.158Z,8.10
2019-05-09T06:58:27.654Z,8.40
2019-05-09T06:59:25.685Z,6.30
2019-05-09T07:00:25.683Z,9.90
2019-05-09T07:01:25.666Z,7.90
2019-05-09T07:02:28.164Z,9.70
2019-05-09T07:03:25.663Z,5.10
2019-05-09T07:04:27.551Z,9.00
2019-05-09T07:05:25.626Z,8.30
2019-05-09T07:06:28.164Z,6.40
2019-05-09T07:07:27.940Z,7.70
2019-05-09T07:08:27.403Z,7.00
2019-05-09T07:09:27.834Z,7.90
2019-05-09T07:10:25.614Z,7.40
2019-05-09T07:11:27.520Z,6.00
2019-05-09T07:12:27.384Z,7.20
2019-05-09T07:13:27.072Z,9.70
2019-05-09T07:14:29.117Z,7.80
2019-05-09T07:15:28.292Z,6.40
2019-05-09T07:16:27.526Z,8.70
2019-05-09T07:17:31.399Z,7.60
2019-05-09T07:18:27.697Z,6.90
2019-05-09T07:19:27.859Z,8.50
2019-05-09T07:20:25.473Z,8.50
2019-05-09T07:21:28.481Z,7.30
2019-05-09T07:22:27.876Z,8.80
2019-05-09T07:23:25.441Z,9.50
2019-05-09T07:24:28.489Z,8.70
2019-05-09T07:25:27.628Z,9.60
2019-05-09T07:26:25.411Z,6.90
2019-05-09T07:27:25.400Z,7.50
2019-05-09T07:28:25.399Z,6.80
2019-05-09T07:29:25.405Z,5.40
2019-05-09T07:30:25.390Z,7.80
2019-05-09T07:31:25.370Z,10.10
2019-05-09T07:32:27.123Z,7.20
2019-05-09T07:33:27.723Z,7.30
2019-05-09T07:34:27.632Z,7.80
2019-05-09T07:35:27.674Z,7.90
2019-05-09T07:36:27.703Z,8.70
2019-05-09T07:37:27.484Z,8.00
2019-05-09T07:38:27.564Z,11.10
2019-05-09T07:39:27.594Z,9.80
2019-05-09T07:40:30.114Z,8.20
2019-05-09T07:41:28.239Z,9.20
2019-05-09T07:42:25.266Z,8.80
2019-05-09T07:43:25.239Z,8.00
2019-05-09T07:44:25.229Z,8.90
2019-05-09T07:45:25.221Z,8.70
2019-05-09T07:46:25.270Z,9.00
2019-05-09T07:47:25.190Z,7.70
2019-05-09T07:48:25.208Z,7.70
2019-05-09T07:49:25.180Z,8.50
2019-05-09T07:50:27.522Z,7.80
2019-05-09T07:51:27.328Z,9.10
2019-05-09T07:52:25.559Z,8.70
2019-05-09T07:53:25.156Z,8.40
2019-05-09T07:54:25.912Z,9.80
2019-05-09T07:55:27.290Z,9.10
2019-05-09T07:56:25.098Z,8.70
2019-05-09T07:57:25.107Z,8.10
2019-05-09T07:58:25.089Z,8.70
2019-05-09T07:59:27.267Z,8.80
2019-05-09T08:00:25.055Z,9.70
2019-05-09T08:01:25.054Z,11.40
2019-05-09T08:02:25.055Z,10.60
2019-05-09T08:03:27.318Z,10.50
2019-05-09T08:04:26.138Z,12.70
2019-05-09T08:05:25.013Z,8.30
2019-05-09T08:06:25.038Z,9.30
2019-05-09T08:07:28.971Z,9.50
2019-05-09T08:08:27.640Z,11.30
2019-05-09T08:09:24.965Z,8.20
2019-05-09T08:10:25.118Z,7.30
2019-05-09T08:11:24.945Z,12.30
2019-05-09T08:12:24.933Z,10.00
2019-05-09T08:13:24.924Z,11.30
2019-05-09T08:14:24.922Z,9.40
2019-05-09T08:15:27.810Z,10.70
2019-05-09T08:16:24.891Z,11.70
2019-05-09T08:17:24.882Z,8.90
2019-05-09T08:18:24.902Z,7.10
2019-05-09T08:19:27.330Z,9.10
2019-05-09T08:20:24.843Z,8.90
2019-05-09T08:21:24.841Z,9.20
2019-05-09T08:22:25.910Z,8.90
2019-05-09T08:23:24.831Z,9.10
2019-05-09T08:24:24.811Z,12.00
2019-05-09T08:25:24.802Z,11.40
2019-05-09T08:26:24.784Z,9.70
2019-05-09T08:27:24.791Z,7.40
2019-05-09T08:28:24.790Z,10.50
2019-05-09T08:29:24.759Z,9.40
2019-05-09T08:30:24.761Z,10.40
2019-05-09T08:31:24.741Z,9.00
2019-05-09T08:32:24.795Z,8.40
2019-05-09T08:33:28.569Z,10.70
2019-05-09T08:34:25.191Z,10.70
2019-05-09T08:35:24.695Z,8.90
2019-05-09T08:36:24.730Z,9.10
2019-05-09T08:37:24.676Z,9.90
2019-05-09T08:38:24.669Z,10.60
2019-05-09T08:39:24.679Z,12.30
2019-05-09T08:40:24.637Z,8.70
2019-05-09T08:41:24.628Z,11.50
2019-05-09T08:42:24.637Z,8.60
2019-05-09T08:43:24.607Z,7.60
2019-05-09T08:44:24.597Z,8.80
2019-05-09T08:45:30.234Z,10.20
2019-05-09T08:46:25.586Z,9.30
2019-05-09T08:47:24.595Z,10.70
2019-05-09T08:48:24.558Z,9.50
2019-05-09T08:49:24.587Z,9.20
2019-05-09T08:50:24.538Z,9.60
2019-05-09T08:51:24.527Z,7.60
2019-05-09T08:52:24.526Z,11.00
2019-05-09T08:53:24.543Z,9.50
2019-05-09T08:54:24.495Z,11.50
2019-05-09T08:55:24.496Z,9.10
2019-05-09T08:56:24.497Z,10.60
2019-05-09T08:57:24.487Z,11.90
2019-05-09T08:58:24.455Z,10.60
2019-05-09T08:59:24.455Z,12.30
2019-05-09T09:00:24.435Z,10.40
2019-05-09T09:01:34.830Z,11.80
2019-05-09T09:02:25.450Z,12.50
2019-05-09T09:03:24.404Z,11.40
2019-05-09T09:04:24.392Z,11.80
2019-05-09T09:05:25.081Z,10.00
2019-05-09T09:06:24.423Z,9.80
2019-05-09T09:07:24.366Z,9.50
2019-05-09T09:08:24.353Z,11.40
2019-05-09T09:09:24.340Z,9.60
2019-05-09T09:10:24.351Z,11.30
2019-05-09T09:11:24.322Z,10.50
2019-05-09T09:12:31.314Z,10.90
2019-05-09T09:13:25.342Z,11.80
2019-05-09T09:14:24.291Z,12.70
2019-05-09T09:15:46.436Z,10.40
2019-05-09T09:16:25.287Z,10.50
2019-05-09T09:17:24.270Z,10.90
2019-05-09T09:18:24.251Z,12.10
2019-05-09T09:19:25.141Z,10.60
2019-05-09T09:20:24.240Z,13.80
2019-05-09T09:21:24.281Z,9.30
2019-05-09T09:22:24.232Z,11.80
2019-05-09T09:23:39.112Z,11.60
2019-05-09T09:24:25.179Z,10.90
2019-05-09T09:25:24.204Z,11.30
2019-05-09T09:26:24.168Z,12.20
2019-05-09T09:27:24.148Z,11.40
2019-05-09T09:30:42.297Z,13.10
2019-05-09T09:31:42.293Z,12.40
2019-05-09T09:32:42.273Z,13.10
2019-05-09T09:33:42.266Z,12.50
2019-05-09T09:34:42.243Z,13.00
2019-05-09T09:35:42.233Z,11.20
2019-05-09T09:36:42.253Z,11.30
2019-05-09T09:37:48.467Z,14.00
2019-05-09T09:38:43.197Z,15.00
2019-05-09T09:39:44.822Z,13.00
2019-05-09T09:40:42.202Z,11.70
2019-05-09T09:41:42.170Z,12.20
2019-05-09T09:42:42.156Z,12.90
2019-05-09T09:43:42.176Z,11.50
2019-05-09T09:44:42.777Z,11.10
2019-05-09T09:45:42.787Z,8.80
2019-05-09T09:46:42.790Z,12.00
2019-05-09T09:47:42.101Z,13.80
2019-05-09T09:48:42.093Z,10.30
2019-05-09T09:49:42.090Z,12.80
2019-05-09T09:50:42.070Z,11.10
2019-05-09T09:51:42.070Z,12.10
2019-05-09T09:52:42.069Z,12.20
2019-05-09T09:53:42.042Z,10.10
2019-05-09T09:54:42.018Z,12.60
2019-05-09T09:55:42.027Z,13.10
2019-05-09T09:56:42.009Z,11.40
2019-05-09T09:57:41.997Z,8.60
2019-05-09T09:58:41.977Z,13.30
2019-05-09T09:59:41.982Z,11.50
2019-05-09T10:00:41.976Z,13.10
2019-05-09T10:01:41.997Z,10.40
2019-05-09T10:02:41.945Z,13.10
2019-05-09T10:03:41.935Z,12.40
2019-05-09T10:04:41.938Z,11.10
2019-05-09T10:05:41.904Z,12.00
2019-05-09T10:06:41.896Z,12.10
2019-05-09T10:07:41.876Z,12.50
2019-05-09T10:08:41.897Z,13.60
2019-05-09T10:09:41.964Z,11.70
2019-05-09T10:10:41.861Z,11.90
2019-05-09T10:11:41.874Z,11.90
2019-05-09T10:12:44.482Z,11.60
2019-05-09T10:13:41.932Z,16.10
2019-05-09T10:14:41.812Z,16.60
2019-05-09T10:15:41.831Z,12.50
2019-05-09T10:16:41.802Z,13.30
2019-05-09T10:17:41.790Z,11.50
2019-05-09T10:18:41.821Z,11.30
2019-05-09T10:19:41.758Z,13.30
2019-05-09T10:20:41.959Z,13.10
2019-05-09T10:21:41.731Z,12.40
2019-05-09T10:22:46.113Z,12.50
2019-05-09T10:23:42.708Z,12.20
2019-05-09T10:24:41.714Z,11.80
2019-05-09T10:25:41.688Z,12.90
2019-05-09T10:26:41.709Z,11.00
2019-05-09T10:27:41.669Z,11.40
2019-05-09T10:28:45.251Z,12.80
2019-05-09T10:29:41.657Z,11.50
2019-05-09T10:30:41.728Z,11.60
2019-05-09T10:31:41.618Z,14.60
2019-05-09T10:32:41.616Z,11.20
2019-05-09T10:33:41.609Z,10.20
2019-05-09T10:34:41.646Z,12.70
2019-05-09T10:35:41.575Z,11.90
2019-05-09T10:36:41.587Z,12.70
2019-05-09T10:37:41.568Z,11.20
2019-05-09T10:38:41.545Z,13.70
2019-05-09T10:39:41.537Z,9.20
2019-05-09T10:40:41.563Z,12.50
2019-05-09T10:41:41.528Z,10.10
2019-05-09T10:42:41.509Z,10.80
2019-05-09T10:43:41.495Z,10.20
2019-05-09T10:44:41.482Z,11.40
2019-05-09T10:45:41.481Z,8.10
2019-05-09T10:46:52.837Z,12.20
2019-05-09T10:47:42.442Z,12.80
2019-05-09T10:48:41.441Z,9.60
2019-05-09T10:49:41.421Z,12.80
2019-05-09T10:50:44.482Z,11.40
2019-05-09T10:51:41.470Z,10.00
2019-05-09T10:52:41.390Z,12.50
2019-05-09T10:53:41.379Z,11.60
2019-05-09T10:54:41.462Z,11.20
2019-05-09T10:55:41.359Z,13.10
2019-05-09T10:56:41.378Z,12.20
2019-05-09T10:57:43.032Z,12.00
2019-05-09T10:58:41.343Z,10.40
2019-05-09T10:59:41.346Z,10.60
2019-05-09T11:00:41.315Z,11.60
2019-05-09T11:01:41.297Z,9.20
2019-05-09T11:02:41.312Z,14.90
2019-05-09T11:03:41.281Z,11.10
2019-05-09T11:04:44.180Z,13.10
2019-05-09T11:05:41.267Z,12.70
2019-05-09T11:06:42.803Z,13.90
2019-05-09T11:07:41.236Z,11.30
2019-05-09T11:08:41.216Z,10.60
2019-05-09T11:09:41.225Z,12.20
2019-05-09T11:10:41.221Z,11.20
2019-05-09T11:11:41.334Z,9.90
2019-05-09T11:12:41.194Z,9.80
2019-05-09T11:13:41.166Z,12.80
2019-05-09T11:14:41.158Z,10.70
2019-05-09T11:15:41.171Z,12.50
2019-05-09T11:16:46.193Z,8.90
2019-05-09T11:17:42.143Z,13.20
2019-05-09T11:18:41.112Z,9.60
2019-05-09T11:19:41.894Z,10.20
2019-05-09T11:20:41.092Z,11.70
2019-05-09T11:21:41.081Z,10.30
2019-05-09T11:22:41.126Z,10.50
2019-05-09T11:23:41.060Z,11.20
2019-05-09T11:24:46.588Z,11.30
2019-05-09T11:25:42.031Z,11.50
2019-05-09T11:26:41.034Z,9.70
2019-05-09T11:27:41.019Z,10.10
2019-05-09T11:28:41.009Z,11.90
2019-05-09T11:29:40.995Z,9.70
2019-05-09T11:30:40.979Z,12.00
2019-05-09T11:31:41.028Z,9.10
2019-05-09T11:32:40.957Z,11.50
2019-05-09T11:33:41.189Z,9.40
2019-05-09T11:34:40.948Z,12.20
2019-05-09T11:35:40.936Z,11.00
2019-05-09T11:36:40.920Z,10.30
2019-05-09T11:37:40.907Z,11.00
2019-05-09T11:38:43.894Z,10.00
2019-05-09T11:39:42.284Z,11.60
2019-05-09T11:40:40.878Z,8.50
2019-05-09T11:41:40.875Z,11.10
2019-05-09T11:42:40.844Z,11.80
2019-05-09T11:43:40.855Z,11.20
2019-05-09T11:44:40.844Z,12.60
2019-05-09T11:45:40.848Z,14.10
2019-05-09T11:46:40.816Z,12.90
2019-05-09T11:47:46.301Z,14.50
2019-05-09T11:48:41.792Z,12.00
2019-05-09T11:49:41.427Z,10.90
2019-05-09T11:50:40.782Z,14.00
2019-05-09T11:51:40.752Z,13.30
2019-05-09T11:52:40.749Z,11.90
2019-05-09T11:53:40.751Z,17.50
2019-05-09T11:54:40.721Z,15.00
2019-05-09T11:55:43.079Z,11.10
2019-05-09T11:56:40.700Z,15.10
2019-05-09T11:57:40.710Z,13.80
2019-05-09T11:58:40.679Z,14.10
2019-05-09T11:59:40.697Z,12.50
2019-05-09T12:00:40.724Z,14.70
2019-05-09T12:01:40.689Z,15.60
2019-05-09T12:02:40.655Z,13.80
2019-05-09T12:03:40.628Z,14.20
2019-05-09T12:04:40.622Z,15.00
2019-05-09T12:05:40.632Z,13.90
2019-05-09T12:06:40.602Z,14.70
2019-05-09T12:07:40.598Z,14.70
2019-05-09T12:08:40.697Z,12.00
2019-05-09T12:09:40.566Z,14.20
2019-05-09T12:10:40.577Z,13.70
2019-05-09T12:11:44.655Z,16.00
2019-05-09T12:12:40.535Z,12.90
2019-05-09T12:13:40.532Z,16.00
2019-05-09T12:14:40.549Z,15.20
2019-05-09T12:15:40.515Z,15.80
2019-05-09T12:16:40.496Z,13.80
2019-05-09T12:17:56.539Z,18.10
2019-05-09T12:18:41.474Z,18.20
2019-05-09T12:19:40.453Z,17.30
2019-05-09T12:20:40.449Z,16.50
2019-05-09T12:21:47.474Z,18.20
2019-05-09T12:22:41.426Z,14.50
2019-05-09T12:23:40.458Z,17.80
2019-05-09T12:24:40.402Z,18.50
2019-05-09T12:25:40.424Z,20.30
2019-05-09T12:26:40.389Z,16.80
2019-05-09T12:27:40.405Z,19.20
2019-05-09T12:28:40.380Z,15.50
2019-05-09T12:29:40.389Z,14.80
2019-05-09T12:30:40.339Z,16.70
2019-05-09T12:31:40.335Z,18.80
2019-05-09T12:32:40.330Z,18.10
2019-05-09T12:33:40.323Z,18.00
2019-05-09T12:34:40.288Z,17.80
2019-05-09T12:35:40.278Z,19.70
2019-05-09T12:36:40.277Z,16.00
2019-05-09T12:37:40.268Z,19.20
2019-05-09T12:38:40.248Z,17.70
2019-05-09T12:39:40.267Z,16.40
2019-05-09T12:40:40.229Z,18.80
2019-05-09T12:41:40.248Z,18.00
2019-05-09T12:42:40.206Z,18.40
2019-05-09T12:43:40.205Z,17.00
2019-05-09T12:44:40.223Z,15.60
2019-05-09T12:45:40.235Z,17.40
2019-05-09T12:46:40.165Z,18.10
2019-05-09T12:47:40.146Z,16.10
2019-05-09T12:48:40.153Z,18.80
2019-05-09T12:49:40.144Z,18.00
2019-05-09T12:50:40.163Z,15.50
2019-05-09T12:51:40.126Z,17.60
2019-05-09T12:52:40.109Z,17.70
2019-05-09T12:53:40.093Z,16.00
2019-05-09T12:54:40.842Z,16.70
2019-05-09T12:55:40.119Z,16.50
2019-05-09T12:56:40.052Z,14.90
2019-05-09T12:57:40.053Z,14.90
2019-05-09T12:58:40.841Z,16.70
2019-05-09T12:59:48.994Z,17.10
2019-05-09T13:00:41.011Z,18.70
2019-05-09T13:01:41.368Z,22.90
2019-05-09T13:02:41.311Z,16.20